Time;durP1;ratioP1;P1;durP2;ratioP2;P2;SDS_P1;SDS_P2;PMS_P1;PMS_P2;Temp;Humidity;BMP_temperature;BMP_pressure;BME280_temperature;BME280_humidity;BME280_pressure;Samples;Min_cycle;Max_cycle;Signal;HPM_P1;HPM_P2
2023/04/16 00:02:01;;;;;;;17.57;10.80;;;9.50;99.90;;;;;;5010990;28;20179;-76
2023/04/16 00:04:26;;;;;;;13.43;10.50;;;9.50;99.90;;;;;;5009085;28;20182;-76
2023/04/16 00:06:54;;;;;;;11.40;10.20;;;9.50;99.90;;;;;;5009305;28;20269;-76
2023/04/16 00:09:19;;;;;;;14.57;10.97;;;9.50;99.90;;;;;;5010564;28;20181;-76
2023/04/16 00:11:45;;;;;;;11.40;10.00;;;9.50;99.90;;;;;;5010696;28;20434;-76
2023/04/16 00:14:11;;;;;;;14.63;10.60;;;9.50;99.90;;;;;;5010403;28;20237;-76
2023/04/16 00:16:37;;;;;;;14.23;10.33;;;9.60;99.90;;;;;;5009399;28;20207;-77
2023/04/16 00:19:03;;;;;;;14.30;11.60;;;9.50;99.90;;;;;;5010160;28;20207;-76
2023/04/16 00:21:28;;;;;;;16.93;10.70;;;9.50;99.90;;;;;;5010360;28;20841;-76
2023/04/16 00:23:54;;;;;;;16.67;11.60;;;9.50;99.90;;;;;;5010265;28;20167;-76
2023/04/16 00:26:20;;;;;;;13.40;9.97;;;9.50;99.90;;;;;;5010264;28;20235;-76
2023/04/16 00:28:45;;;;;;;12.40;9.37;;;9.50;99.90;;;;;;5010241;28;20186;-76
2023/04/16 00:31:11;;;;;;;14.57;11.07;;;9.50;99.90;;;;;;5008973;28;20191;-77
2023/04/16 00:33:37;;;;;;;14.40;10.37;;;9.60;99.90;;;;;;5010282;28;20179;-77
2023/04/16 00:36:03;;;;;;;11.67;10.03;;;9.70;99.90;;;;;;5008916;28;20641;-77
2023/04/16 00:38:29;;;;;;;15.20;10.30;;;9.50;99.90;;;;;;5010062;28;20651;-76
2023/04/16 00:40:57;;;;;;;13.23;10.13;;;9.50;99.90;;;;;;5009875;28;20465;-76
2023/04/16 00:43:24;;;;;;;16.10;11.03;;;9.50;99.90;;;;;;5009952;28;20415;-77
2023/04/16 00:45:52;;;;;;;14.33;11.07;;;9.50;99.90;;;;;;5009592;28;20414;-77
2023/04/16 00:48:19;;;;;;;12.47;10.10;;;9.50;99.90;;;;;;5009826;28;20424;-77
2023/04/16 00:50:45;;;;;;;14.23;11.97;;;9.40;99.90;;;;;;5008446;28;20500;-77
2023/04/16 00:53:12;;;;;;;14.23;10.70;;;9.50;99.90;;;;;;5009789;28;20415;-77
2023/04/16 00:55:38;;;;;;;14.37;11.07;;;9.40;99.90;;;;;;5010176;28;21211;-77
2023/04/16 00:58:04;;;;;;;14.77;11.20;;;9.40;99.90;;;;;;4992580;28;20427;-77
2023/04/16 01:00:30;;;;;;;15.93;11.53;;;9.40;99.90;;;;;;4989850;28;20936;-77
2023/04/16 01:02:55;;;;;;;15.30;11.27;;;9.40;99.90;;;;;;4990317;28;20187;-76
2023/04/16 01:05:21;;;;;;;13.90;11.10;;;9.40;99.90;;;;;;4990210;28;20184;-76
2023/04/16 01:07:47;;;;;;;13.17;10.80;;;9.40;99.90;;;;;;4990173;28;20251;-77
2023/04/16 01:10:12;;;;;;;14.90;11.60;;;9.40;99.90;;;;;;4989695;28;20281;-77
2023/04/16 01:12:38;;;;;;;13.70;11.30;;;9.60;99.90;;;;;;5005256;28;20504;-76
2023/04/16 01:15:04;;;;;;;16.37;12.63;;;9.40;99.90;;;;;;4989926;28;20191;-76
2023/04/16 01:17:30;;;;;;;14.63;11.47;;;9.40;99.90;;;;;;4988696;28;20184;-77
2023/04/16 01:19:59;;;;;;;19.57;12.00;;;9.40;99.90;;;;;;4989915;28;20975;-77
2023/04/16 01:22:26;;;;;;;13.83;11.67;;;9.50;99.90;;;;;;4989927;28;20342;-76
2023/04/16 01:24:52;;;;;;;18.40;12.17;;;9.40;99.90;;;;;;4989689;28;20506;-76
2023/04/16 01:27:18;;;;;;;15.40;11.70;;;9.50;99.90;;;;;;4989670;28;20454;-76
2023/04/16 01:29:43;;;;;;;16.00;12.50;;;9.50;99.90;;;;;;4989604;28;20176;-77
2023/04/16 01:32:09;;;;;;;18.00;13.07;;;9.50;99.90;;;;;;4989942;28;20701;-77
2023/04/16 01:34:35;;;;;;;18.10;12.47;;;9.40;99.90;;;;;;4989857;28;20274;-76
2023/04/16 01:37:00;;;;;;;22.37;12.83;;;9.60;99.90;;;;;;4989866;28;20180;-76
2023/04/16 01:39:26;;;;;;;17.40;13.07;;;9.50;99.90;;;;;;5004708;28;20218;-76
2023/04/16 01:41:52;;;;;;;18.53;12.57;;;9.40;99.90;;;;;;4989678;28;20196;-76
2023/04/16 01:44:17;;;;;;;17.00;12.40;;;9.40;99.90;;;;;;4989696;28;20230;-76
2023/04/16 01:46:43;;;;;;;17.77;13.43;;;9.50;99.90;;;;;;5005124;28;20252;-76
2023/04/16 01:49:09;;;;;;;14.73;12.07;;;9.50;99.90;;;;;;4990181;28;20188;-76
2023/04/16 01:51:35;;;;;;;16.80;13.60;;;9.50;99.90;;;;;;5004764;28;20562;-76
2023/04/16 01:54:01;;;;;;;17.60;12.50;;;9.60;99.90;;;;;;5004566;28;20282;-76
2023/04/16 01:56:26;;;;;;;15.77;12.77;;;9.50;99.90;;;;;;5006041;28;20581;-77
2023/04/16 01:58:52;;;;;;;18.03;13.10;;;9.70;99.90;;;;;;5008953;28;20183;-76
2023/04/16 02:01:18;;;;;;;18.07;12.80;;;9.40;99.90;;;;;;5008723;28;20198;-76
2023/04/16 02:03:44;;;;;;;16.97;12.90;;;9.50;99.90;;;;;;5008903;28;20187;-76
2023/04/16 02:06:09;;;;;;;16.87;13.30;;;9.50;99.90;;;;;;5007668;28;20183;-76
2023/04/16 02:08:35;;;;;;;19.80;14.63;;;9.40;99.90;;;;;;5024217;28;20214;-77
2023/04/16 02:11:01;;;;;;;15.60;12.60;;;9.40;99.90;;;;;;5007439;28;20202;-76
2023/04/16 02:13:27;;;;;;;15.93;12.90;;;9.70;99.90;;;;;;5008798;28;20209;-76
2023/04/16 02:15:52;;;;;;;20.57;13.80;;;9.50;99.90;;;;;;5009073;28;20211;-77
2023/04/16 02:18:18;;;;;;;17.67;14.00;;;9.50;99.90;;;;;;5008681;28;20187;-77
2023/04/16 02:20:45;;;;;;;19.93;14.33;;;9.50;99.90;;;;;;5008486;28;20720;-77
2023/04/16 02:23:13;;;;;;;18.97;14.07;;;9.60;99.90;;;;;;5008521;28;20290;-77
2023/04/16 02:25:40;;;;;;;20.73;14.10;;;9.60;99.90;;;;;;5008933;28;20432;-77
2023/04/16 02:28:15;;;;;;;18.50;14.40;;;9.50;99.90;;;;;;5023832;28;20410;-77
2023/04/16 02:30:41;;;;;;;20.67;15.47;;;9.50;99.90;;;;;;5008557;28;20437;-76
2023/04/16 02:33:08;;;;;;;22.63;15.50;;;9.40;99.90;;;;;;5008561;28;20444;-76
2023/04/16 02:35:34;;;;;;;21.33;15.53;;;9.40;99.90;;;;;;5008829;28;20421;-76
2023/04/16 02:38:00;;;;;;;22.73;16.20;;;9.40;99.90;;;;;;5024151;28;20441;-76
2023/04/16 02:40:27;;;;;;;20.93;16.77;;;9.50;99.90;;;;;;5024165;28;20905;-77
2023/04/16 02:42:53;;;;;;;20.70;16.73;;;9.50;99.90;;;;;;5009675;28;20420;-78
2023/04/16 02:45:19;;;;;;;21.87;16.37;;;9.40;99.90;;;;;;5010391;28;20414;-78
2023/04/16 02:47:46;;;;;;;24.93;18.00;;;9.40;99.90;;;;;;5009017;28;20485;-78
2023/04/16 02:50:11;;;;;;;22.33;17.20;;;9.50;99.90;;;;;;5025570;28;20434;-78
2023/04/16 02:52:37;;;;;;;28.40;17.20;;;9.40;99.90;;;;;;5010332;28;20418;-78
2023/04/16 02:55:03;;;;;;;22.57;16.57;;;9.40;99.90;;;;;;5004685;28;20210;-79
2023/04/16 02:57:29;;;;;;;25.53;18.83;;;9.60;99.90;;;;;;5001933;28;20282;-78
2023/04/16 02:59:55;;;;;;;24.97;18.00;;;9.50;99.90;;;;;;5025700;28;20561;-78
2023/04/16 03:02:20;;;;;;;23.33;18.27;;;9.50;99.90;;;;;;4993017;28;20203;-78
2023/04/16 03:04:46;;;;;;;25.77;18.93;;;9.40;99.90;;;;;;5025595;28;20183;-79
2023/04/16 03:07:12;;;;;;;33.50;19.17;;;9.60;99.90;;;;;;5024931;28;20285;-78
2023/04/16 03:09:38;;;;;;;29.00;20.23;;;9.40;99.90;;;;;;5011081;28;20194;-79
2023/04/16 03:12:04;;;;;;;22.47;18.30;;;9.70;99.90;;;;;;5013616;28;20422;-78
2023/04/16 03:14:30;;;;;;;28.13;20.20;;;9.40;99.90;;;;;;5028742;28;20479;-77
2023/04/16 03:16:56;;;;;;;27.50;19.30;;;9.50;99.90;;;;;;5013293;28;20417;-78
2023/04/16 03:19:22;;;;;;;25.47;19.47;;;9.50;99.90;;;;;;5012904;28;20461;-78
2023/04/16 03:21:48;;;;;;;27.40;19.67;;;9.50;99.90;;;;;;5012126;28;20589;-78
2023/04/16 03:24:13;;;;;;;30.93;19.57;;;9.50;99.90;;;;;;5028354;28;20201;-78
2023/04/16 03:26:39;;;;;;;27.87;20.30;;;9.50;99.90;;;;;;5013401;28;20184;-77
2023/04/16 03:29:05;;;;;;;24.87;19.30;;;9.60;99.90;;;;;;5013038;28;20179;-78
2023/04/16 03:31:31;;;;;;;26.40;19.83;;;9.50;99.90;;;;;;5028036;28;20199;-78
2023/04/16 03:33:56;;;;;;;29.13;19.73;;;9.70;99.90;;;;;;5027792;28;20187;-78
2023/04/16 03:36:22;;;;;;;28.67;20.47;;;9.60;99.90;;;;;;5013039;28;20219;-78
2023/04/16 03:38:48;;;;;;;26.67;18.40;;;9.70;99.90;;;;;;5027905;28;20581;-78
2023/04/16 03:41:14;;;;;;;28.43;19.50;;;9.60;99.90;;;;;;5012843;28;20310;-78
2023/04/16 03:43:40;;;;;;;26.43;18.23;;;9.60;99.90;;;;;;5012660;28;20406;-76
2023/04/16 03:46:05;;;;;;;22.83;18.57;;;9.50;99.90;;;;;;5013662;28;20499;-78
2023/04/16 03:48:31;;;;;;;23.67;18.50;;;9.70;99.90;;;;;;5013141;28;20418;-78
2023/04/16 03:50:57;;;;;;;21.60;18.67;;;9.60;99.90;;;;;;5013036;28;20257;-78
2023/04/16 03:53:23;;;;;;;25.57;18.77;;;9.60;99.90;;;;;;5012563;28;20214;-78
2023/04/16 03:55:50;;;;;;;25.83;18.83;;;9.60;99.90;;;;;;5000461;28;20435;-78
2023/04/16 03:58:16;;;;;;;24.23;19.30;;;9.60;99.90;;;;;;5010452;28;20183;-78
2023/04/16 04:00:42;;;;;;;24.73;18.80;;;9.70;99.90;;;;;;5013490;28;20800;-78
2023/04/16 04:03:09;;;;;;;22.67;17.90;;;9.80;99.90;;;;;;5012677;28;20553;-78
2023/04/16 04:05:36;;;;;;;27.10;19.07;;;9.80;99.90;;;;;;5013511;28;20419;-78
2023/04/16 04:08:03;;;;;;;27.90;20.27;;;9.70;99.90;;;;;;5012394;28;20414;-79
2023/04/16 04:10:31;;;;;;;27.77;19.60;;;9.60;99.90;;;;;;5027877;28;20442;-78
2023/04/16 04:12:57;;;;;;;28.77;21.13;;;9.60;99.90;;;;;;5012747;28;20406;-78
2023/04/16 04:15:22;;;;;;;25.40;19.03;;;9.70;99.90;;;;;;5027815;28;20938;-78
2023/04/16 04:17:48;;;;;;;33.77;21.80;;;9.60;99.90;;;;;;5011286;28;20219;-78
2023/04/16 04:20:14;;;;;;;28.20;19.70;;;9.60;99.90;;;;;;5012173;28;20238;-78
2023/04/16 04:22:39;;;;;;;29.20;20.53;;;9.60;99.90;;;;;;5011664;28;20617;-76
2023/04/16 04:25:05;;;;;;;28.23;20.60;;;9.80;99.90;;;;;;5011213;28;20174;-78
2023/04/16 04:27:31;;;;;;;35.03;22.23;;;9.60;99.90;;;;;;5027813;28;20183;-77
2023/04/16 04:29:57;;;;;;;30.07;20.80;;;9.60;99.90;;;;;;5012193;28;20700;-79
2023/04/16 04:32:22;;;;;;;27.70;20.47;;;9.70;99.90;;;;;;5012991;28;20214;-78
2023/04/16 04:34:48;;;;;;;31.57;21.50;;;9.70;99.90;;;;;;5011852;28;20187;-78
2023/04/16 04:37:13;;;;;;;33.50;21.47;;;9.70;99.90;;;;;;5012703;28;20211;-78
2023/04/16 04:39:39;;;;;;;30.50;20.97;;;9.70;99.90;;;;;;5011508;28;20218;-77
2023/04/16 04:42:05;;;;;;;31.53;20.50;;;9.60;99.90;;;;;;5012392;28;20171;-79
2023/04/16 04:44:31;;;;;;;29.17;20.50;;;9.70;99.90;;;;;;5011831;28;20449;-78
2023/04/16 04:46:56;;;;;;;32.30;21.33;;;9.70;99.90;;;;;;5012081;28;20226;-78
2023/04/16 04:49:22;;;;;;;37.20;22.60;;;9.80;99.90;;;;;;5012162;28;20253;-78
2023/04/16 04:51:48;;;;;;;30.67;20.73;;;9.70;99.90;;;;;;5012247;28;20238;-77
2023/04/16 04:54:13;;;;;;;33.70;21.77;;;9.60;99.90;;;;;;5026726;28;20187;-78
2023/04/16 04:56:39;;;;;;;31.00;22.43;;;9.70;99.90;;;;;;4999145;28;20186;-78
2023/04/16 04:59:05;;;;;;;32.57;20.97;;;9.70;99.90;;;;;;5010673;28;20648;-77
2023/04/16 05:01:30;;;;;;;31.00;21.33;;;9.70;99.90;;;;;;5010452;28;20283;-78
2023/04/16 05:03:56;;;;;;;42.00;23.40;;;9.70;99.90;;;;;;5011607;28;20663;-77
2023/04/16 05:06:22;;;;;;;32.20;20.70;;;9.70;99.90;;;;;;5012184;28;20222;-78
2023/04/16 05:08:47;;;;;;;32.60;20.30;;;9.80;99.90;;;;;;5026767;28;20695;-78
2023/04/16 05:11:13;;;;;;;28.60;19.60;;;9.70;99.90;;;;;;5011877;28;20214;-78
2023/04/16 05:13:39;;;;;;;28.83;20.23;;;9.80;99.90;;;;;;5011372;28;20198;-77
2023/04/16 05:16:05;;;;;;;31.30;21.67;;;9.80;99.90;;;;;;5027474;28;20616;-78
2023/04/16 05:18:31;;;;;;;32.50;20.67;;;9.90;99.90;;;;;;5011624;28;20189;-78
2023/04/16 05:20:57;;;;;;;30.67;21.80;;;9.80;99.90;;;;;;5026715;28;20541;-78
2023/04/16 05:23:22;;;;;;;29.30;19.47;;;9.70;99.90;;;;;;5011390;28;20991;-78
2023/04/16 05:25:48;;;;;;;30.47;21.13;;;9.70;99.90;;;;;;5026611;28;20219;-78
2023/04/16 05:28:14;;;;;;;30.90;20.87;;;9.70;99.90;;;;;;5011123;28;20172;-77
2023/04/16 05:30:39;;;;;;;31.30;21.67;;;9.70;99.90;;;;;;5010354;28;20288;-78
2023/04/16 05:33:05;;;;;;;32.03;20.93;;;10.00;99.90;;;;;;5004512;28;20188;-78
2023/04/16 05:35:30;;;;;;;32.83;21.80;;;9.80;99.90;;;;;;5008268;28;20200;-77
2023/04/16 05:37:56;;;;;;;33.93;21.47;;;9.70;99.90;;;;;;5000263;28;20195;-76
2023/04/16 05:40:22;;;;;;;33.83;21.97;;;9.80;99.90;;;;;;4992258;28;20222;-76
2023/04/16 05:42:48;;;;;;;29.97;21.17;;;9.70;99.90;;;;;;4992496;28;20210;-79
2023/04/16 05:45:13;;;;;;;35.70;22.13;;;9.70;99.90;;;;;;4990362;28;20191;-77
2023/04/16 05:47:40;;;;;;;35.27;20.93;;;9.70;99.90;;;;;;4992024;28;20470;-78
2023/04/16 05:50:06;;;;;;;33.07;22.00;;;9.80;99.90;;;;;;4991484;28;20443;-77
2023/04/16 05:52:32;;;;;;;30.37;21.40;;;9.70;99.90;;;;;;4991644;28;20188;-78
2023/04/16 05:55:00;;;;;;;33.00;21.00;;;9.70;99.90;;;;;;4995978;28;20406;-78
2023/04/16 05:57:27;;;;;;;33.50;22.10;;;9.70;99.90;;;;;;5010125;28;20290;-78
2023/04/16 05:59:52;;;;;;;32.80;21.00;;;9.70;99.90;;;;;;5011002;28;20887;-78
2023/04/16 06:02:19;;;;;;;31.60;21.07;;;9.70;99.90;;;;;;5011710;28;20438;-77
2023/04/16 06:04:45;;;;;;;36.83;21.90;;;9.80;99.90;;;;;;5026175;28;20175;-78
2023/04/16 06:07:10;;;;;;;31.80;21.87;;;9.80;99.90;;;;;;5006423;28;20491;-78
2023/04/16 06:09:36;;;;;;;40.70;21.57;;;9.90;99.90;;;;;;5006862;28;20415;-77
2023/04/16 06:12:02;;;;;;;31.53;21.60;;;9.70;99.90;;;;;;5008464;28;20629;-78
2023/04/16 06:14:28;;;;;;;32.90;21.87;;;9.70;99.90;;;;;;5007266;28;20190;-77
2023/04/16 06:16:53;;;;;;;32.27;23.23;;;9.80;99.90;;;;;;5004327;28;20213;-77
2023/04/16 06:19:19;;;;;;;33.50;22.77;;;9.80;99.90;;;;;;5007895;28;20583;-78
2023/04/16 06:21:45;;;;;;;33.03;23.90;;;9.70;99.90;;;;;;5005242;28;20219;-76
2023/04/16 06:24:12;;;;;;;33.33;21.50;;;9.80;99.90;;;;;;5014561;28;20202;-78
2023/04/16 06:26:37;;;;;;;33.53;23.70;;;9.90;99.90;;;;;;5006415;28;20210;-77
2023/04/16 06:29:03;;;;;;;31.87;22.00;;;9.80;99.90;;;;;;5005579;28;21278;-77
2023/04/16 06:31:29;;;;;;;33.67;22.70;;;9.90;99.90;;;;;;5016316;28;20226;-77
2023/04/16 06:33:55;;;;;;;32.30;22.43;;;9.80;99.90;;;;;;5006336;28;20246;-77
2023/04/16 06:36:21;;;;;;;31.83;22.50;;;9.90;99.90;;;;;;5010303;28;20469;-77
2023/04/16 06:38:47;;;;;;;30.97;22.57;;;9.70;99.90;;;;;;5008787;28;20476;-78
2023/04/16 06:41:15;;;;;;;33.00;22.20;;;9.80;99.90;;;;;;5003749;28;20618;-77
2023/04/16 06:43:41;;;;;;;33.63;23.77;;;9.80;99.90;;;;;;5009339;28;20207;-77
2023/04/16 06:46:06;;;;;;;36.90;24.43;;;9.80;99.90;;;;;;5013050;28;20471;-78
2023/04/16 06:48:32;;;;;;;31.33;22.80;;;9.80;99.90;;;;;;5013167;28;20678;-77
2023/04/16 06:50:58;;;;;;;30.40;21.73;;;9.80;99.90;;;;;;5017598;28;20213;-77
2023/04/16 06:53:23;;;;;;;36.20;24.80;;;9.90;99.90;;;;;;5018761;28;20576;-78
2023/04/16 06:55:49;;;;;;;35.73;23.50;;;9.90;99.90;;;;;;5016825;28;20207;-77
2023/04/16 06:58:15;;;;;;;39.33;24.43;;;9.90;99.90;;;;;;5014127;28;20210;-78
2023/04/16 07:00:40;;;;;;;32.20;23.23;;;9.90;99.90;;;;;;5012370;28;20231;-76
2023/04/16 07:03:06;;;;;;;33.53;22.80;;;10.00;99.90;;;;;;5011264;28;20330;-76
2023/04/16 07:05:32;;;;;;;39.83;25.60;;;10.00;99.90;;;;;;5009075;28;20294;-76
2023/04/16 07:07:58;;;;;;;32.90;24.37;;;10.00;99.90;;;;;;5016621;28;20265;-76
2023/04/16 07:10:24;;;;;;;35.03;22.47;;;10.00;99.90;;;;;;5020397;28;20256;-76
2023/04/16 07:12:50;;;;;;;34.10;24.03;;;10.00;99.90;;;;;;5024415;28;20429;-75
2023/04/16 07:15:15;;;;;;;32.30;23.93;;;10.10;99.90;;;;;;5036615;28;20436;-76
2023/04/16 07:17:41;;;;;;;36.30;23.77;;;10.10;99.90;;;;;;5023070;28;20207;-76
2023/04/16 07:20:07;;;;;;;31.67;22.73;;;10.10;99.90;;;;;;5012648;28;20751;-76
2023/04/16 07:22:33;;;;;;;35.33;23.93;;;10.10;99.90;;;;;;5018322;28;20215;-77
2023/04/16 07:24:59;;;;;;;38.13;25.07;;;10.20;99.90;;;;;;5015057;28;20523;-76
2023/04/16 07:27:24;;;;;;;35.23;23.60;;;10.10;99.90;;;;;;5021568;28;20218;-76
2023/04/16 07:29:50;;;;;;;30.43;21.10;;;10.20;99.90;;;;;;5015701;28;20202;-76
2023/04/16 07:32:16;;;;;;;34.33;24.00;;;10.20;99.90;;;;;;5013909;28;20211;-76
2023/04/16 07:34:41;;;;;;;35.07;25.00;;;10.10;99.90;;;;;;5009087;28;20210;-76
2023/04/16 07:37:08;;;;;;;31.30;23.07;;;10.20;99.90;;;;;;5017221;28;20239;-76
2023/04/16 07:39:33;;;;;;;32.17;22.47;;;10.20;99.90;;;;;;5019554;28;20723;-76
2023/04/16 07:41:59;;;;;;;36.47;24.13;;;10.20;99.90;;;;;;5009783;28;20528;-77
2023/04/16 07:44:25;;;;;;;31.47;23.53;;;10.10;99.90;;;;;;5019962;28;20208;-77
2023/04/16 07:46:51;;;;;;;32.63;23.33;;;10.10;99.90;;;;;;5005940;28;20969;-76
2023/04/16 07:49:16;;;;;;;34.27;24.30;;;10.20;99.90;;;;;;5013321;28;20229;-76
2023/04/16 07:51:42;;;;;;;33.20;25.40;;;10.20;99.90;;;;;;5021352;28;20226;-76
2023/04/16 07:54:08;;;;;;;32.13;24.23;;;10.20;99.90;;;;;;5009841;28;20552;-76
2023/04/16 07:56:35;;;;;;;30.60;24.47;;;10.20;99.90;;;;;;5008736;28;20234;-76
2023/04/16 07:59:00;;;;;;;31.60;24.50;;;10.20;99.90;;;;;;5015140;28;20437;-77
2023/04/16 08:01:26;;;;;;;37.80;24.20;;;10.20;99.90;;;;;;5012548;28;20457;-76
2023/04/16 08:03:52;;;;;;;31.23;24.50;;;10.30;99.90;;;;;;5015370;28;20352;-77
2023/04/16 08:06:17;;;;;;;35.90;25.47;;;10.30;99.90;;;;;;5010707;28;20257;-76
2023/04/16 08:08:43;;;;;;;32.57;23.80;;;10.40;99.90;;;;;;5013852;28;20608;-76
2023/04/16 08:11:09;;;;;;;33.50;23.93;;;10.40;99.90;;;;;;5008221;28;20246;-76
2023/04/16 08:13:34;;;;;;;34.07;23.63;;;10.40;99.90;;;;;;5007997;28;20198;-76
2023/04/16 08:16:00;;;;;;;32.00;23.03;;;10.40;99.90;;;;;;5011054;28;20226;-76
2023/04/16 08:18:26;;;;;;;33.07;24.20;;;10.40;99.90;;;;;;5009587;28;20205;-76
2023/04/16 08:20:52;;;;;;;32.30;24.80;;;10.50;99.90;;;;;;5010447;28;20489;-77
2023/04/16 08:23:17;;;;;;;31.90;24.37;;;10.50;99.90;;;;;;5011130;28;20226;-76
2023/04/16 08:25:43;;;;;;;34.57;24.07;;;10.50;99.90;;;;;;5015333;28;20202;-76
2023/04/16 08:28:09;;;;;;;30.53;23.60;;;10.60;99.90;;;;;;5021797;28;20213;-76
2023/04/16 08:30:35;;;;;;;30.73;22.30;;;10.60;99.90;;;;;;5016848;28;20250;-76
2023/04/16 08:33:00;;;;;;;28.50;22.87;;;10.60;99.90;;;;;;5007793;28;20554;-76
2023/04/16 08:35:26;;;;;;;32.20;24.23;;;10.60;99.90;;;;;;5011153;28;20791;-77
2023/04/16 08:37:53;;;;;;;28.37;22.90;;;10.70;99.90;;;;;;5025887;28;20477;-76
2023/04/16 08:40:18;;;;;;;29.43;21.70;;;10.70;99.90;;;;;;5029852;28;20218;-76
2023/04/16 08:42:54;;;;;;;29.87;23.50;;;10.70;99.90;;;;;;5011598;28;20576;-76
2023/04/16 08:45:20;;;;;;;30.73;23.40;;;10.70;99.90;;;;;;5021704;28;20199;-76
2023/04/16 08:47:49;;;;;;;29.83;22.27;;;10.70;99.90;;;;;;5013157;28;20491;-76
2023/04/16 08:50:15;;;;;;;29.77;22.57;;;10.70;99.90;;;;;;4994105;28;20473;-76
2023/04/16 08:52:50;;;;;;;27.23;21.67;;;10.70;99.90;;;;;;5012124;28;21137;-76
2023/04/16 08:55:18;;;;;;;27.17;21.20;;;10.70;99.90;;;;;;5021474;28;20524;-76
2023/04/16 08:57:49;;;;;;;29.50;23.10;;;10.70;99.90;;;;;;5025847;28;20457;-77
2023/04/16 09:00:16;;;;;;;28.30;22.63;;;10.70;99.90;;;;;;5015650;28;20462;-77
2023/04/16 09:02:42;;;;;;;27.17;21.03;;;10.80;99.90;;;;;;5008767;28;20955;-77
2023/04/16 09:05:09;;;;;;;30.90;21.60;;;10.80;99.90;;;;;;5013375;28;20981;-77
2023/04/16 09:07:35;;;;;;;26.43;21.77;;;10.90;99.90;;;;;;5011429;28;20466;-77
2023/04/16 09:10:02;;;;;;;28.10;22.20;;;10.90;99.90;;;;;;5008977;28;20445;-77
2023/04/16 09:12:29;;;;;;;27.40;21.57;;;10.90;99.90;;;;;;5010666;28;20454;-77
2023/04/16 09:14:56;;;;;;;30.10;21.50;;;10.80;99.90;;;;;;5009100;28;20844;-76
2023/04/16 09:17:21;;;;;;;29.03;23.80;;;10.80;99.90;;;;;;5005394;28;20453;-76
2023/04/16 09:19:47;;;;;;;28.43;21.87;;;10.80;99.90;;;;;;5011042;28;20874;-76
2023/04/16 09:22:13;;;;;;;26.93;21.80;;;10.80;99.90;;;;;;5009144;28;20209;-77
2023/04/16 09:24:39;;;;;;;24.33;20.60;;;10.80;99.90;;;;;;5007100;28;21373;-77
2023/04/16 09:27:06;;;;;;;24.50;20.63;;;10.80;99.90;;;;;;5006457;28;20215;-77
2023/04/16 09:29:33;;;;;;;26.17;22.07;;;10.90;99.90;;;;;;5011564;28;20434;-77
2023/04/16 09:32:04;;;;;;;26.27;21.37;;;10.90;99.90;;;;;;5010093;28;20462;-77
2023/04/16 09:34:32;;;;;;;25.20;21.30;;;10.90;99.90;;;;;;5010322;28;20477;-76
2023/04/16 09:37:17;;;;;;;28.50;20.20;;;11.00;99.90;;;;;;5023230;28;20454;-76
2023/04/16 09:39:44;;;;;;;25.80;21.53;;;11.00;99.90;;;;;;5016968;28;20465;-76
2023/04/16 09:42:10;;;;;;;27.43;21.13;;;11.00;99.90;;;;;;5011940;28;20442;-77
2023/04/16 09:44:37;;;;;;;24.10;20.20;;;11.00;99.90;;;;;;5026054;28;20436;-76
2023/04/16 09:47:09;;;;;;;25.40;21.40;;;11.00;99.90;;;;;;5006782;28;20485;-76
2023/04/16 09:49:41;;;;;;;29.77;22.40;;;11.00;99.90;;;;;;5022100;28;20422;-77
2023/04/16 09:52:16;;;;;;;25.60;21.03;;;11.00;99.90;;;;;;5029693;28;20420;-76
2023/04/16 09:54:50;;;;;;;27.23;22.23;;;10.90;99.90;;;;;;5019915;28;20475;-76
2023/04/16 09:57:20;;;;;;;23.63;20.93;;;10.90;99.90;;;;;;5013166;28;20449;-76
2023/04/16 09:59:47;;;;;;;28.67;21.20;;;11.00;99.90;;;;;;5028600;28;20469;-76
2023/04/16 10:02:13;;;;;;;25.10;21.77;;;11.00;99.90;;;;;;5021238;28;20415;-76
2023/04/16 10:04:49;;;;;;;28.77;20.60;;;11.10;99.90;;;;;;5021013;28;20414;-77
2023/04/16 10:07:15;;;;;;;26.67;21.30;;;11.10;99.90;;;;;;5021351;28;20178;-77
2023/04/16 10:09:41;;;;;;;27.50;22.07;;;11.10;99.90;;;;;;5027904;28;20421;-76
2023/04/16 10:12:07;;;;;;;23.33;20.60;;;11.20;99.90;;;;;;5015823;28;20432;-76
2023/04/16 10:14:33;;;;;;;27.57;21.93;;;11.20;99.90;;;;;;5019281;28;20242;-76
2023/04/16 10:16:59;;;;;;;25.50;20.80;;;11.20;99.90;;;;;;5020721;28;20414;-77
2023/04/16 10:19:26;;;;;;;24.40;21.47;;;11.00;99.90;;;;;;5023154;28;20459;-77
2023/04/16 10:21:53;;;;;;;25.67;20.33;;;11.00;99.90;;;;;;5017427;28;20468;-76
2023/04/16 10:24:19;;;;;;;30.63;23.23;;;11.00;99.90;;;;;;5024660;28;20421;-77
2023/04/16 10:26:46;;;;;;;26.47;22.10;;;11.00;99.90;;;;;;5028091;28;20491;-76
2023/04/16 10:29:12;;;;;;;27.70;21.20;;;11.10;99.90;;;;;;5021664;28;20418;-76
2023/04/16 10:31:39;;;;;;;34.13;22.80;;;11.10;99.90;;;;;;5029806;28;20444;-76
2023/04/16 10:34:07;;;;;;;27.00;20.90;;;11.20;99.90;;;;;;5026838;28;20410;-77
2023/04/16 10:36:36;;;;;;;27.10;21.20;;;11.20;99.90;;;;;;5024273;28;20491;-77
2023/04/16 10:39:02;;;;;;;25.17;21.37;;;11.30;99.90;;;;;;5019646;28;20562;-76
2023/04/16 10:41:28;;;;;;;26.40;21.40;;;11.30;99.90;;;;;;5024880;28;20528;-76
2023/04/16 10:44:08;;;;;;;24.03;21.20;;;11.40;99.90;;;;;;5024851;28;20431;-76
2023/04/16 10:46:39;;;;;;;26.10;21.93;;;11.40;99.90;;;;;;5024142;28;20240;-76
2023/04/16 10:49:18;;;;;;;26.97;23.43;;;11.50;99.90;;;;;;5018388;28;20414;-77
2023/04/16 10:51:55;;;;;;;26.13;21.63;;;11.50;99.90;;;;;;5023782;28;20520;-76
2023/04/16 10:54:33;;;;;;;26.13;21.43;;;11.50;99.90;;;;;;5031733;28;20462;-76
2023/04/16 10:57:03;;;;;;;24.00;20.13;;;11.50;99.90;;;;;;5024502;28;20756;-76
2023/04/16 10:59:32;;;;;;;25.40;21.70;;;11.50;99.90;;;;;;5025918;28;20462;-76
2023/04/16 11:02:02;;;;;;;23.60;19.53;;;11.60;99.90;;;;;;5025962;28;20447;-76
2023/04/16 11:04:33;;;;;;;23.93;20.83;;;11.50;99.90;;;;;;5017209;28;20494;-76
2023/04/16 11:07:14;;;;;;;28.53;21.33;;;11.60;99.90;;;;;;5023333;28;20424;-76
2023/04/16 11:10:05;;;;;;;24.07;20.43;;;11.70;99.90;;;;;;5026258;28;20425;-76
2023/04/16 11:12:43;;;;;;;24.07;21.13;;;12.00;99.90;;;;;;5031300;28;20413;-76
2023/04/16 11:15:10;;;;;;;22.47;20.03;;;12.10;99.90;;;;;;5022775;28;20447;-77
2023/04/16 11:17:39;;;;;;;23.50;19.83;;;12.30;99.90;;;;;;5021329;28;20450;-76
2023/04/16 11:20:08;;;;;;;21.40;19.10;;;12.30;99.90;;;;;;5028959;28;20469;-76
2023/04/16 11:22:37;;;;;;;22.60;18.80;;;12.30;99.90;;;;;;5020606;28;20428;-76
2023/04/16 11:25:04;;;;;;;20.13;17.93;;;12.30;99.90;;;;;;5029392;28;20508;-76
2023/04/16 11:27:32;;;;;;;22.53;19.53;;;12.20;99.90;;;;;;5023794;28;20416;-76
2023/04/16 11:29:58;;;;;;;21.53;18.60;;;12.20;99.90;;;;;;5018558;28;20489;-77
2023/04/16 11:32:24;;;;;;;22.90;17.80;;;12.20;99.90;;;;;;5023001;28;20419;-76
2023/04/16 11:34:49;;;;;;;20.10;16.70;;;12.20;99.90;;;;;;5028320;28;20225;-76
2023/04/16 11:37:39;;;;;;;21.03;18.60;;;12.20;99.90;;;;;;5020249;28;20528;-77
2023/04/16 11:40:06;;;;;;;21.93;19.20;;;12.30;99.90;;;;;;5015345;28;20227;-77
2023/04/16 11:42:35;;;;;;;22.60;20.27;;;12.40;99.90;;;;;;5028633;28;20440;-76
2023/04/16 11:45:02;;;;;;;20.57;18.40;;;12.40;99.90;;;;;;5021871;28;20492;-77
2023/04/16 11:47:30;;;;;;;20.20;17.83;;;12.40;99.90;;;;;;5028350;28;20508;-76
2023/04/16 11:50:14;;;;;;;21.03;18.83;;;12.50;99.90;;;;;;5022065;28;20507;-76
2023/04/16 11:52:40;;;;;;;19.87;17.70;;;12.40;99.90;;;;;;5030211;28;20452;-77
2023/04/16 11:55:05;;;;;;;19.90;17.40;;;12.40;99.90;;;;;;5023850;28;20950;-76
2023/04/16 11:57:31;;;;;;;22.83;18.53;;;12.30;99.90;;;;;;5022289;28;20682;-77
2023/04/16 11:59:58;;;;;;;20.43;18.10;;;12.30;99.90;;;;;;5035127;28;20674;-76
2023/04/16 12:02:37;;;;;;;22.00;18.07;;;12.30;99.90;;;;;;5019980;28;20212;-76
2023/04/16 12:05:05;;;;;;;20.30;17.20;;;12.30;99.90;;;;;;5013636;28;20475;-77
2023/04/16 12:07:30;;;;;;;20.70;18.30;;;12.30;99.90;;;;;;5027876;28;20949;-76
2023/04/16 12:10:06;;;;;;;19.47;17.47;;;12.20;99.90;;;;;;5022537;28;20445;-76
2023/04/16 12:12:33;;;;;;;19.40;17.30;;;12.20;99.90;;;;;;5012791;28;20179;-76
2023/04/16 12:15:03;;;;;;;21.43;17.27;;;12.10;99.90;;;;;;5024019;28;20921;-77
2023/04/16 12:17:31;;;;;;;22.63;18.80;;;12.10;99.90;;;;;;5023036;28;20409;-77
2023/04/16 12:19:59;;;;;;;23.50;18.90;;;12.00;99.90;;;;;;5030983;28;20457;-76
2023/04/16 12:22:33;;;;;;;20.60;17.60;;;12.00;99.90;;;;;;5021754;28;20436;-76
2023/04/16 12:25:04;;;;;;;20.10;17.90;;;12.00;99.90;;;;;;5022557;28;20497;-76
2023/04/16 12:27:50;;;;;;;23.57;18.97;;;12.00;99.90;;;;;;5021943;28;20426;-77
2023/04/16 12:30:17;;;;;;;20.90;18.00;;;12.00;99.90;;;;;;5024913;28;20433;-77
2023/04/16 12:32:46;;;;;;;21.57;19.13;;;12.10;99.90;;;;;;5031394;28;20448;-76